Luke Air Force Base
KLUF : now visible

Airfield :











YOU CAN JOIN US ON...

 
LOGIN :

Register | Disclaimer

   EN    FR    IT 

 









Legend :    VFR   Marginal VFR   IFR   Intensive IFR   Very Intensive IFR
Visi :
Ceiling :
>= 8 km
>= 3000ft
5 to 8 km
1000 to 3000 ft
1500m to 5 km
500 to 1000 ft
800 to 1500m
200 to 500 ft
< 800m
< 200 ft
Symbols :   Thunderstorms  Fog  Heavy snow  Heavy precipitations  Wind > 20 kt






- Airport Elevation : 1085 ft


KLUF - Luke Air Force Base

CURRENT METAR :
  • 112103Z COR AUTO 20005KT 10SM FEW210 41/11 A2981 RMK AO2 SLP077 COR 2108

EXPIRED METARs :
  • 111958Z 20004KT 10SM FEW210 40/11 A2984 RMK AO2A SLP088 T04000111
  • 111858Z 21007KT 10SM CLR 39/13 A2987 RMK AO2A SLP098 T03860130

TAF TAF KLUF
Valid from the 11 at 20:00 until the 13 at 02:00 UTC


112003Z 1120/1302 VRB06KT 9999 FEW120 QNH2976INS
TEMPO 1121/1203 24012G18KT
BECMG 1221/1222 24012G18KT 9999 SKC QNH2971INS TX42/1122Z TN29/1213Z
KZAB FIR / North America



MET'MAP, your aeronautical weather chart ! - Copyright ORBIFLY December 2007 - Disclaimer

ORBIFLY MET'MAP TEAM :

Programming & Development : Alexandra Zaïnal
Concept & original design : Baudouin d'Aumeries
Assistance for programming : Marc-Olivier Méhu
Technical & hardware support : Manuel Goepfert

Contact : metmap@orbifly.com




SOURCES & CREDITS :

   NOAA       Earth
Advisory